Time;durP1;ratioP1;P1;durP2;ratioP2;P2;SDS_P1;SDS_P2;PMS_P1;PMS_P2;Temp;Humidity;BMP_temperature;BMP_pressure;BME280_temperature;BME280_humidity;BME280_pressure;Samples;Min_cycle;Max_cycle;Signal;HPM_P1;HPM_P2
2022/11/23 00:00:18;;;;;;;23.00;11.93;;;;;;;;;;5024876;28;20061;-77
2022/11/23 00:02:46;;;;;;;19.38;12.35;;;;;;;;;;5020999;28;20104;-79
2022/11/23 00:05:13;;;;;;;24.10;14.30;;;;;;;;;;5024780;28;20049;-78
2022/11/23 00:07:40;;;;;;;30.27;13.52;;;;;;;;;;5023486;28;20045;-78
2022/11/23 00:10:08;;;;;;;30.50;13.98;;;;;;;;;;5024381;28;20585;-78
2022/11/23 00:12:35;;;;;;;29.60;14.05;;;;;;;;;;5019886;28;20057;-77
2022/11/23 00:15:02;;;;;;;30.67;14.55;;;;;;;;;;5023690;28;20497;-77
2022/11/23 00:17:31;;;;;;;27.27;13.63;;;;;;;;;;5022829;28;20061;-78
2022/11/23 00:19:58;;;;;;;27.45;14.45;;;;;;;;;;5021221;28;20076;-78
2022/11/23 00:22:25;;;;;;;27.95;15.10;;;;;;;;;;5024576;28;20060;-78
2022/11/23 00:24:52;;;;;;;27.90;14.50;;;;;;;;;;5024391;28;20569;-77
2022/11/23 00:27:20;;;;;;;27.52;14.68;;;;;;;;;;5023742;28;20049;-78
2022/11/23 00:29:47;;;;;;;23.95;13.90;;;;;;;;;;5022829;28;20054;-77
2022/11/23 00:32:14;;;;;;;30.05;15.40;;;;;;;;;;5024851;28;20057;-78
2022/11/23 00:34:43;;;;;;;24.85;13.82;;;;;;;;;;5025540;28;20052;-78
2022/11/23 00:37:10;;;;;;;25.38;14.48;;;;;;;;;;5025221;28;20061;-78
2022/11/23 00:39:37;;;;;;;26.60;14.90;;;;;;;;;;5025250;28;20056;-77
2022/11/23 00:42:05;;;;;;;26.70;15.00;;;;;;;;;;5026469;28;20049;-77
2022/11/23 00:44:32;;;;;;;35.00;15.20;;;;;;;;;;5024943;28;20562;-78
2022/11/23 00:46:59;;;;;;;24.20;14.68;;;;;;;;;;5024621;28;20056;-77
2022/11/23 00:49:27;;;;;;;27.55;15.25;;;;;;;;;;5023406;28;20115;-77
2022/11/23 00:51:55;;;;;;;24.92;15.20;;;;;;;;;;5026551;28;20048;-77
2022/11/23 00:54:23;;;;;;;29.13;15.02;;;;;;;;;;5031533;28;20053;-79
2022/11/23 00:56:50;;;;;;;28.20;15.07;;;;;;;;;;5034467;28;20048;-77
2022/11/23 00:59:17;;;;;;;31.23;14.15;;;;;;;;;;5029410;28;20053;-76
2022/11/23 01:01:46;;;;;;;26.15;15.10;;;;;;;;;;5033051;28;20064;-77
2022/11/23 01:04:13;;;;;;;27.50;14.68;;;;;;;;;;5031971;28;20167;-77
2022/11/23 01:06:40;;;;;;;24.17;13.70;;;;;;;;;;5031479;28;20083;-78
2022/11/23 01:09:12;;;;;;;27.65;15.18;;;;;;;;;;5024555;28;20049;-77
2022/11/23 01:11:39;;;;;;;22.92;14.10;;;;;;;;;;5023771;28;20063;-78
2022/11/23 01:14:06;;;;;;;24.20;13.80;;;;;;;;;;5027493;28;20061;-78
2022/11/23 01:16:35;;;;;;;25.98;14.02;;;;;;;;;;5023036;28;21364;-77
2022/11/23 01:19:03;;;;;;;24.40;14.05;;;;;;;;;;5026782;28;20064;-77
2022/11/23 01:21:32;;;;;;;21.52;13.30;;;;;;;;;;5028080;28;20119;-77
2022/11/23 01:23:59;;;;;;;25.30;13.60;;;;;;;;;;5033086;28;20503;-77
2022/11/23 01:26:28;;;;;;;29.75;14.20;;;;;;;;;;5023096;28;20072;-78
2022/11/23 01:28:55;;;;;;;28.13;14.27;;;;;;;;;;5024241;28;20111;-78
2022/11/23 01:31:23;;;;;;;24.35;13.30;;;;;;;;;;5026051;28;20068;-77
2022/11/23 01:33:53;;;;;;;25.30;13.38;;;;;;;;;;5025968;28;20060;-78
2022/11/23 01:36:21;;;;;;;28.45;13.65;;;;;;;;;;5028954;28;20107;-77
2022/11/23 01:38:49;;;;;;;26.83;14.05;;;;;;;;;;5026464;28;20679;-77
2022/11/23 01:41:17;;;;;;;29.88;14.65;;;;;;;;;;5027180;28;20057;-78
2022/11/23 01:43:46;;;;;;;25.52;13.80;;;;;;;;;;5029854;28;20068;-78
2022/11/23 01:46:14;;;;;;;26.88;13.55;;;;;;;;;;5028520;28;20045;-78
2022/11/23 01:48:43;;;;;;;22.80;13.98;;;;;;;;;;5034309;28;20132;-78
2022/11/23 01:51:12;;;;;;;26.25;13.90;;;;;;;;;;5020931;28;20057;-78
2022/11/23 01:53:40;;;;;;;30.02;14.98;;;;;;;;;;5029668;28;20061;-77
2022/11/23 01:56:09;;;;;;;27.05;14.38;;;;;;;;;;5021505;28;20068;-77
2022/11/23 01:58:37;;;;;;;34.15;15.18;;;;;;;;;;5033753;28;20048;-79
2022/11/23 02:01:06;;;;;;;32.47;15.82;;;;;;;;;;5034778;28;20053;-77
2022/11/23 02:03:35;;;;;;;32.05;16.67;;;;;;;;;;5032729;28;20057;-77
2022/11/23 02:06:03;;;;;;;35.17;16.42;;;;;;;;;;5033734;28;20486;-78
2022/11/23 02:08:32;;;;;;;28.83;15.70;;;;;;;;;;5018848;28;20121;-76
2022/11/23 02:10:59;;;;;;;27.98;16.70;;;;;;;;;;5030484;28;20059;-77
2022/11/23 02:13:28;;;;;;;30.20;15.70;;;;;;;;;;5030369;28;20053;-77
2022/11/23 02:15:56;;;;;;;31.35;16.15;;;;;;;;;;5033937;28;20133;-78
2022/11/23 02:18:26;;;;;;;30.75;16.80;;;;;;;;;;5027091;28;20044;-77
2022/11/23 02:20:54;;;;;;;35.92;19.17;;;;;;;;;;5027786;28;20046;-77
2022/11/23 02:23:28;;;;;;;41.55;18.02;;;;;;;;;;5027091;28;20075;-77
2022/11/23 02:26:01;;;;;;;37.97;17.40;;;;;;;;;;5020654;28;20058;-78
2022/11/23 02:28:30;;;;;;;38.28;18.85;;;;;;;;;;5025351;28;20049;-77
2022/11/23 02:30:57;;;;;;;38.63;18.23;;;;;;;;;;5028174;28;20151;-77
2022/11/23 02:33:25;;;;;;;34.45;17.88;;;;;;;;;;5031835;28;20053;-78
2022/11/23 02:35:53;;;;;;;38.47;17.40;;;;;;;;;;5023166;28;20480;-77
2022/11/23 02:38:20;;;;;;;39.42;18.30;;;;;;;;;;5022637;28;20185;-78
2022/11/23 02:40:48;;;;;;;35.00;18.80;;;;;;;;;;5028281;28;20060;-77
2022/11/23 02:43:17;;;;;;;36.40;18.35;;;;;;;;;;5024528;28;20049;-77
2022/11/23 02:45:47;;;;;;;32.67;19.33;;;;;;;;;;5027841;28;20500;-77
2022/11/23 02:48:14;;;;;;;34.17;19.58;;;;;;;;;;5025683;28;20053;-77
2022/11/23 02:50:41;;;;;;;36.25;19.10;;;;;;;;;;5027652;28;20056;-77
2022/11/23 02:53:09;;;;;;;36.78;19.27;;;;;;;;;;5029534;28;20558;-77
2022/11/23 02:55:36;;;;;;;32.08;19.50;;;;;;;;;;5027949;28;20079;-77
2022/11/23 02:58:03;;;;;;;40.53;19.60;;;;;;;;;;5026124;28;20048;-77
2022/11/23 03:00:32;;;;;;;33.63;18.88;;;;;;;;;;5022933;28;20044;-77
2022/11/23 03:03:01;;;;;;;35.08;18.48;;;;;;;;;;5022632;28;20644;-77
2022/11/23 03:05:28;;;;;;;32.83;17.67;;;;;;;;;;5028561;28;20057;-78
2022/11/23 03:07:55;;;;;;;36.75;19.95;;;;;;;;;;5025081;28;20052;-77
2022/11/23 03:10:23;;;;;;;44.10;20.15;;;;;;;;;;5025372;28;20057;-77
2022/11/23 03:12:50;;;;;;;34.72;19.52;;;;;;;;;;5025067;28;20057;-77
2022/11/23 03:15:17;;;;;;;45.53;21.70;;;;;;;;;;5025821;28;20060;-77
2022/11/23 03:17:46;;;;;;;49.53;23.35;;;;;;;;;;5027305;28;20049;-77
2022/11/23 03:20:13;;;;;;;47.22;23.20;;;;;;;;;;5028140;28;20493;-77
2022/11/23 03:22:40;;;;;;;45.53;24.38;;;;;;;;;;5024442;28;20214;-77
2022/11/23 03:25:08;;;;;;;49.17;25.25;;;;;;;;;;5022872;28;20160;-77
2022/11/23 03:27:35;;;;;;;41.15;23.20;;;;;;;;;;5028152;28;20049;-77
2022/11/23 03:30:03;;;;;;;44.72;25.08;;;;;;;;;;5029406;28;20037;-76
2022/11/23 03:32:30;;;;;;;46.70;23.90;;;;;;;;;;5026791;28;20049;-77
2022/11/23 03:34:58;;;;;;;52.85;24.83;;;;;;;;;;5028899;28;20053;-77
2022/11/23 03:37:26;;;;;;;55.78;25.63;;;;;;;;;;5027915;28;20040;-77
2022/11/23 03:39:53;;;;;;;49.42;24.15;;;;;;;;;;5029874;28;20060;-77
2022/11/23 03:42:20;;;;;;;54.35;25.15;;;;;;;;;;5029809;28;20068;-76
2022/11/23 03:44:47;;;;;;;51.78;23.08;;;;;;;;;;5027994;28;20049;-76
2022/11/23 03:47:15;;;;;;;50.50;24.40;;;;;;;;;;5027876;28;20044;-76
2022/11/23 03:49:42;;;;;;;42.25;22.67;;;;;;;;;;5019521;28;20060;-77
2022/11/23 03:52:11;;;;;;;53.47;24.80;;;;;;;;;;5023377;28;20044;-76
2022/11/23 03:54:38;;;;;;;47.20;22.58;;;;;;;;;;5029985;28;20060;-76
2022/11/23 03:57:05;;;;;;;47.95;24.02;;;;;;;;;;5026871;28;20080;-76
2022/11/23 03:59:33;;;;;;;43.67;22.63;;;;;;;;;;5018046;28;20799;-76
2022/11/23 04:02:00;;;;;;;41.80;22.77;;;;;;;;;;5033834;28;20064;-76
2022/11/23 04:04:27;;;;;;;49.83;23.27;;;;;;;;;;5028999;28;20048;-77
2022/11/23 04:06:54;;;;;;;49.50;23.77;;;;;;;;;;5029685;28;20064;-77
2022/11/23 04:09:23;;;;;;;46.53;23.42;;;;;;;;;;5029089;28;20053;-77
2022/11/23 04:11:50;;;;;;;52.17;25.02;;;;;;;;;;5023331;28;20052;-76
2022/11/23 04:14:17;;;;;;;52.28;25.65;;;;;;;;;;5030429;28;20427;-77
2022/11/23 04:16:45;;;;;;;45.67;23.80;;;;;;;;;;5030757;28;20526;-76
2022/11/23 04:19:12;;;;;;;56.03;24.55;;;;;;;;;;5030467;28;20060;-76
2022/11/23 04:21:39;;;;;;;59.28;26.45;;;;;;;;;;5027013;28;20069;-77
2022/11/23 04:24:07;;;;;;;49.38;25.05;;;;;;;;;;5028384;28;20064;-76
2022/11/23 04:26:35;;;;;;;38.38;22.98;;;;;;;;;;5023859;28;20056;-76
2022/11/23 04:29:03;;;;;;;48.42;25.80;;;;;;;;;;5011812;28;20565;-76
2022/11/23 04:31:30;;;;;;;45.50;23.92;;;;;;;;;;5002694;28;20045;-76
2022/11/23 04:33:57;;;;;;;51.22;25.70;;;;;;;;;;5003701;28;20050;-77
2022/11/23 04:36:26;;;;;;;49.40;25.00;;;;;;;;;;5007048;28;20050;-76
2022/11/23 04:38:53;;;;;;;54.95;25.42;;;;;;;;;;5007858;28;20089;-76
2022/11/23 04:41:20;;;;;;;51.50;24.52;;;;;;;;;;5010938;28;20050;-76
2022/11/23 04:43:50;;;;;;;55.13;24.27;;;;;;;;;;5004911;28;20153;-76
2022/11/23 04:46:18;;;;;;;50.28;23.73;;;;;;;;;;5005522;28;20057;-76
2022/11/23 04:48:45;;;;;;;42.58;23.55;;;;;;;;;;5003720;28;20057;-76
2022/11/23 04:51:12;;;;;;;46.83;24.85;;;;;;;;;;5001226;28;20050;-76
2022/11/23 04:53:40;;;;;;;52.30;24.48;;;;;;;;;;5009263;28;20402;-76
2022/11/23 04:56:08;;;;;;;47.88;24.23;;;;;;;;;;5004310;28;20050;-76
2022/11/23 04:58:35;;;;;;;51.05;24.00;;;;;;;;;;5003805;28;20046;-76
2022/11/23 05:01:04;;;;;;;45.28;22.98;;;;;;;;;;5004505;28;20233;-76
2022/11/23 05:03:33;;;;;;;48.10;23.38;;;;;;;;;;5006833;28;20046;-77
2022/11/23 05:06:01;;;;;;;48.40;22.80;;;;;;;;;;5010032;28;20054;-76
2022/11/23 05:08:28;;;;;;;50.47;22.95;;;;;;;;;;5008223;28;20053;-76
2022/11/23 05:10:56;;;;;;;40.15;21.40;;;;;;;;;;5010938;28;20511;-76
2022/11/23 05:13:23;;;;;;;52.92;22.00;;;;;;;;;;5006683;28;20054;-76
2022/11/23 05:15:50;;;;;;;42.70;19.90;;;;;;;;;;5003938;28;20054;-77
2022/11/23 05:18:19;;;;;;;44.17;21.67;;;;;;;;;;5004838;28;20417;-76
2022/11/23 05:20:47;;;;;;;46.58;21.13;;;;;;;;;;5010014;28;20042;-75
2022/11/23 05:23:14;;;;;;;42.15;20.27;;;;;;;;;;5011151;28;20123;-76
2022/11/23 05:25:41;;;;;;;43.08;21.15;;;;;;;;;;5008941;28;20056;-78
2022/11/23 05:28:10;;;;;;;51.85;21.05;;;;;;;;;;5010803;28;20542;-76
2022/11/23 05:30:37;;;;;;;45.35;19.52;;;;;;;;;;5023842;28;20049;-77
2022/11/23 05:33:04;;;;;;;42.90;20.55;;;;;;;;;;5026432;28;20057;-77
2022/11/23 05:35:34;;;;;;;42.60;20.17;;;;;;;;;;5031756;28;20049;-76
2022/11/23 05:38:01;;;;;;;46.22;20.75;;;;;;;;;;5026814;28;20052;-76
2022/11/23 05:40:28;;;;;;;44.33;20.83;;;;;;;;;;5023530;28;20049;-77
2022/11/23 05:42:56;;;;;;;44.22;22.92;;;;;;;;;;5028723;28;20045;-78
2022/11/23 05:45:23;;;;;;;45.28;21.55;;;;;;;;;;5029016;28;20053;-77
2022/11/23 05:47:51;;;;;;;45.42;23.52;;;;;;;;;;5027713;28;20064;-76
2022/11/23 05:50:19;;;;;;;48.50;24.40;;;;;;;;;;5031820;28;20045;-75
2022/11/23 05:52:47;;;;;;;50.65;25.05;;;;;;;;;;5026230;28;20449;-77
2022/11/23 05:55:15;;;;;;;48.45;25.15;;;;;;;;;;5025068;28;20076;-77
2022/11/23 05:57:42;;;;;;;50.38;25.25;;;;;;;;;;5025882;28;20085;-77
2022/11/23 06:00:10;;;;;;;51.83;25.35;;;;;;;;;;5022240;28;20060;-77
2022/11/23 06:02:38;;;;;;;48.88;26.45;;;;;;;;;;5030246;28;20065;-77
2022/11/23 06:05:06;;;;;;;57.00;26.85;;;;;;;;;;5025802;28;20048;-78
2022/11/23 06:07:33;;;;;;;54.15;27.48;;;;;;;;;;5033792;28;20092;-77
2022/11/23 06:10:02;;;;;;;50.65;25.90;;;;;;;;;;5029404;28;20049;-77
2022/11/23 06:12:30;;;;;;;53.83;28.27;;;;;;;;;;5027059;28;20711;-76
2022/11/23 06:14:57;;;;;;;55.75;27.73;;;;;;;;;;5028706;28;20057;-77
2022/11/23 06:17:25;;;;;;;55.20;28.90;;;;;;;;;;5026038;28;20053;-76
2022/11/23 06:19:52;;;;;;;56.80;28.25;;;;;;;;;;5027973;28;20037;-77
2022/11/23 06:22:19;;;;;;;58.13;29.90;;;;;;;;;;5025406;28;20057;-77
2022/11/23 06:24:46;;;;;;;56.60;28.60;;;;;;;;;;5022191;28;20061;-75
2022/11/23 06:27:16;;;;;;;60.00;28.25;;;;;;;;;;5026726;28;20503;-84
2022/11/23 06:29:43;;;;;;;58.17;28.73;;;;;;;;;;5008435;28;20054;-84
2022/11/23 06:32:11;;;;;;;55.20;27.25;;;;;;;;;;5003564;28;20453;-83
2022/11/23 06:34:38;;;;;;;49.65;26.63;;;;;;;;;;5009026;28;20386;-82
2022/11/23 06:37:06;;;;;;;57.60;28.75;;;;;;;;;;5004649;28;20061;-84
2022/11/23 06:39:33;;;;;;;60.22;28.10;;;;;;;;;;5011466;28;20053;-83
2022/11/23 06:42:00;;;;;;;54.30;26.35;;;;;;;;;;5004514;28;20046;-82
2022/11/23 06:44:29;;;;;;;53.40;27.63;;;;;;;;;;5011366;28;20053;-82
2022/11/23 06:46:56;;;;;;;47.15;25.30;;;;;;;;;;5006259;28;20049;-84
2022/11/23 06:49:24;;;;;;;48.90;26.77;;;;;;;;;;5006766;28;20060;-80
2022/11/23 06:51:52;;;;;;;45.50;25.02;;;;;;;;;;5008275;28;20152;-83
2022/11/23 06:54:19;;;;;;;43.70;23.83;;;;;;;;;;5007074;28;20058;-83
2022/11/23 06:56:46;;;;;;;47.13;23.65;;;;;;;;;;5012928;28;20057;-82
2022/11/23 06:59:14;;;;;;;43.88;22.55;;;;;;;;;;5009398;28;20049;-83
2022/11/23 07:01:43;;;;;;;39.92;21.40;;;;;;;;;;5001661;28;20519;-82
2022/11/23 07:04:10;;;;;;;38.40;21.73;;;;;;;;;;5007679;28;20042;-80
2022/11/23 07:06:40;;;;;;;40.70;20.98;;;;;;;;;;5003471;28;20050;-79
2022/11/23 07:09:08;;;;;;;40.20;20.77;;;;;;;;;;4998011;28;20054;-83
2022/11/23 07:11:35;;;;;;;37.13;21.10;;;;;;;;;;5005503;28;20145;-83
2022/11/23 07:14:02;;;;;;;40.67;20.75;;;;;;;;;;5006669;28;20064;-81
2022/11/23 07:16:30;;;;;;;33.15;18.45;;;;;;;;;;5005932;28;20046;-82
2022/11/23 07:18:59;;;;;;;35.33;19.20;;;;;;;;;;5004773;28;20050;-82
2022/11/23 07:21:26;;;;;;;30.65;18.05;;;;;;;;;;5000247;28;20413;-83
2022/11/23 07:23:53;;;;;;;32.05;18.33;;;;;;;;;;5003533;28;20485;-83
2022/11/23 07:26:21;;;;;;;29.90;16.98;;;;;;;;;;5001027;28;20054;-82
2022/11/23 07:28:48;;;;;;;30.80;17.48;;;;;;;;;;5017199;28;20061;-83
2022/11/23 07:31:15;;;;;;;34.95;18.25;;;;;;;;;;5025210;28;20526;-80
2022/11/23 07:33:44;;;;;;;33.55;18.13;;;;;;;;;;5018440;28;20053;-81
2022/11/23 07:36:13;;;;;;;30.20;17.30;;;;;;;;;;5020185;28;20049;-79
2022/11/23 07:38:40;;;;;;;25.20;16.25;;;;;;;;;;5022462;28;20045;-81
2022/11/23 07:41:08;;;;;;;31.67;17.00;;;;;;;;;;5020425;28;20046;-81
2022/11/23 07:43:35;;;;;;;30.17;16.20;;;;;;;;;;5021968;28;20053;-82
2022/11/23 07:46:02;;;;;;;28.67;15.90;;;;;;;;;;5016546;28;20538;-83
2022/11/23 07:48:30;;;;;;;27.23;15.30;;;;;;;;;;5017402;28;20421;-82
2022/11/23 07:50:57;;;;;;;27.73;15.77;;;;;;;;;;5016894;28;20431;-81
2022/11/23 07:53:26;;;;;;;27.02;14.68;;;;;;;;;;5016630;28;20136;-83
2022/11/23 07:55:57;;;;;;;33.35;16.35;;;;;;;;;;5014660;28;20500;-81
2022/11/23 07:58:24;;;;;;;23.33;13.93;;;;;;;;;;5017745;28;20049;-83
2022/11/23 08:00:52;;;;;;;26.75;13.75;;;;;;;;;;5021672;28;20050;-82
2022/11/23 08:03:19;;;;;;;25.38;13.88;;;;;;;;;;5013419;28;20092;-82
2022/11/23 08:05:48;;;;;;;24.77;13.70;;;;;;;;;;5017790;28;20116;-80
2022/11/23 08:08:16;;;;;;;26.33;13.63;;;;;;;;;;5015950;28;20053;-82
2022/11/23 08:10:44;;;;;;;23.27;13.00;;;;;;;;;;5017029;28;20056;-82
2022/11/23 08:13:12;;;;;;;23.70;12.27;;;;;;;;;;5017206;28;20621;-82
2022/11/23 08:15:39;;;;;;;26.92;12.80;;;;;;;;;;5015790;28;20057;-82
2022/11/23 08:18:06;;;;;;;23.63;12.20;;;;;;;;;;5019214;28;20050;-81
2022/11/23 08:20:34;;;;;;;25.75;12.43;;;;;;;;;;5018631;28;20045;-81
2022/11/23 08:23:02;;;;;;;21.20;11.07;;;;;;;;;;5023206;28;20041;-83
2022/11/23 08:25:30;;;;;;;22.50;12.20;;;;;;;;;;5024703;28;20079;-81
2022/11/23 08:27:59;;;;;;;22.13;11.70;;;;;;;;;;5027578;28;20053;-79
2022/11/23 08:30:27;;;;;;;23.27;11.90;;;;;;;;;;5022240;28;20056;-83
2022/11/23 08:32:54;;;;;;;22.83;10.90;;;;;;;;;;5026941;28;20412;-82
2022/11/23 08:35:22;;;;;;;30.38;10.88;;;;;;;;;;5028897;28;20056;-83
2022/11/23 08:37:49;;;;;;;20.73;11.02;;;;;;;;;;5020611;28;20072;-82
2022/11/23 08:40:16;;;;;;;21.73;11.38;;;;;;;;;;5033546;28;20044;-82
2022/11/23 08:42:44;;;;;;;25.92;11.43;;;;;;;;;;5028667;28;20053;-81
2022/11/23 08:45:13;;;;;;;22.83;11.30;;;;;;;;;;5023980;28;20060;-82
2022/11/23 08:47:40;;;;;;;21.15;11.00;;;;;;;;;;5026557;28;20080;-81
2022/11/23 08:50:08;;;;;;;20.17;11.20;;;;;;;;;;5031605;28;20074;-81
2022/11/23 08:52:35;;;;;;;23.92;11.13;;;;;;;;;;5030188;28;20104;-82
2022/11/23 08:55:02;;;;;;;25.42;11.85;;;;;;;;;;5030469;28;20053;-79
2022/11/23 08:57:29;;;;;;;22.85;11.15;;;;;;;;;;5030442;28;20067;-83
2022/11/23 08:59:57;;;;;;;21.48;10.90;;;;;;;;;;5033781;28;20053;-82
2022/11/23 09:02:25;;;;;;;32.30;11.45;;;;;;;;;;5029693;28;20140;-77
2022/11/23 09:04:53;;;;;;;22.23;11.15;;;;;;;;;;5032220;28;20044;-83
2022/11/23 09:07:20;;;;;;;20.80;10.65;;;;;;;;;;5031877;28;20063;-82
2022/11/23 09:09:48;;;;;;;24.90;11.07;;;;;;;;;;5026866;28;20049;-83
2022/11/23 09:12:15;;;;;;;26.02;11.85;;;;;;;;;;5027251;28;20076;-79
2022/11/23 09:14:42;;;;;;;25.02;11.18;;;;;;;;;;5025514;28;20140;-79
2022/11/23 09:17:09;;;;;;;23.13;11.35;;;;;;;;;;5032598;28;20082;-79
2022/11/23 09:19:38;;;;;;;18.13;11.95;;;;;;;;;;5038404;28;20052;-81
2022/11/23 09:22:07;;;;;;;24.33;11.93;;;;;;;;;;5028166;28;20046;-81
2022/11/23 09:24:34;;;;;;;21.80;11.70;;;;;;;;;;5033022;28;20052;-81
2022/11/23 09:27:01;;;;;;;25.45;11.68;;;;;;;;;;5036180;28;20411;-81
2022/11/23 09:29:29;;;;;;;28.13;12.60;;;;;;;;;;5032822;28;20061;-83
2022/11/23 09:31:56;;;;;;;23.45;11.68;;;;;;;;;;5032654;28;20411;-82
2022/11/23 09:34:23;;;;;;;23.35;11.35;;;;;;;;;;5030868;28;20060;-82
2022/11/23 09:36:52;;;;;;;25.00;10.25;;;;;;;;;;5034175;28;20049;-81
2022/11/23 09:39:19;;;;;;;27.08;9.63;;;;;;;;;;5028380;28;20068;-81
2022/11/23 09:42:00;;;;;;;29.38;12.80;;;;;;;;;;5029830;28;20131;-81
2022/11/23 09:44:32;;;;;;;18.58;9.20;;;;;;;;;;5028745;28;20060;-79
2022/11/23 09:47:07;;;;;;;26.23;9.05;;;;;;;;;;5030897;28;20044;-82
2022/11/23 09:49:37;;;;;;;15.90;8.40;;;;;;;;;;5031152;28;20141;-80
2022/11/23 09:52:10;;;;;;;21.50;7.90;;;;;;;;;;5026845;28;20042;-78
2022/11/23 09:54:38;;;;;;;17.45;7.68;;;;;;;;;;5033752;28;20052;-80
2022/11/23 09:57:05;;;;;;;20.23;7.85;;;;;;;;;;5029439;28;20056;-80
2022/11/23 09:59:37;;;;;;;19.30;8.20;;;;;;;;;;5023552;28;20056;-82
2022/11/23 10:02:05;;;;;;;20.48;7.97;;;;;;;;;;5042222;28;20056;-81
2022/11/23 10:04:34;;;;;;;19.95;7.30;;;;;;;;;;5029765;28;20723;-81
2022/11/23 10:07:11;;;;;;;19.92;7.55;;;;;;;;;;5027066;28;20048;-80
2022/11/23 10:09:45;;;;;;;17.42;7.60;;;;;;;;;;5030779;28;20186;-82
2022/11/23 10:12:27;;;;;;;23.55;7.75;;;;;;;;;;5024377;28;20630;-82
2022/11/23 10:14:59;;;;;;;16.30;6.85;;;;;;;;;;5029168;28;20049;-82
2022/11/23 10:17:32;;;;;;;26.83;6.33;;;;;;;;;;5029486;28;21490;-82
2022/11/23 10:20:05;;;;;;;20.42;6.88;;;;;;;;;;5024823;28;20400;-82
2022/11/23 10:22:35;;;;;;;18.90;7.43;;;;;;;;;;5029230;28;20041;-82
2022/11/23 10:25:10;;;;;;;22.98;7.50;;;;;;;;;;5030760;28;20685;-81
2022/11/23 10:27:37;;;;;;;18.10;6.47;;;;;;;;;;5031487;28;20049;-81
2022/11/23 10:30:13;;;;;;;19.15;5.78;;;;;;;;;;5030337;28;20049;-82
2022/11/23 10:32:43;;;;;;;17.00;5.70;;;;;;;;;;5030778;28;20041;-81
2022/11/23 10:35:12;;;;;;;21.67;5.70;;;;;;;;;;5029787;28;20053;-81
2022/11/23 10:37:40;;;;;;;16.20;5.32;;;;;;;;;;5046574;28;20057;-80
2022/11/23 10:40:16;;;;;;;16.85;5.03;;;;;;;;;;5026061;28;20048;-82
2022/11/23 10:42:45;;;;;;;26.35;5.25;;;;;;;;;;5028932;28;20384;-80
2022/11/23 10:45:19;;;;;;;15.68;4.28;;;;;;;;;;5029418;28;20045;-82
2022/11/23 10:47:51;;;;;;;11.90;4.30;;;;;;;;;;5029866;28;20048;-79
2022/11/23 10:50:27;;;;;;;18.88;4.20;;;;;;;;;;5026207;28;20045;-82
2022/11/23 10:52:56;;;;;;;21.15;4.38;;;;;;;;;;5027829;28;20350;-81
2022/11/23 10:55:27;;;;;;;16.45;3.90;;;;;;;;;;5036642;28;20057;-83
2022/11/23 10:57:55;;;;;;;24.23;4.80;;;;;;;;;;5035559;28;20060;-82
2022/11/23 11:00:23;;;;;;;19.92;3.75;;;;;;;;;;5033552;28;20083;-82
2022/11/23 11:02:52;;;;;;;24.75;3.70;;;;;;;;;;5031309;28;20144;-78
2022/11/23 11:05:27;;;;;;;12.18;3.58;;;;;;;;;;5047413;28;20122;-81
2022/11/23 11:07:54;;;;;;;23.08;4.32;;;;;;;;;;5027878;28;20057;-80
2022/11/23 11:10:36;;;;;;;25.40;3.75;;;;;;;;;;5027495;28;20044;-83
2022/11/23 11:13:21;;;;;;;13.18;3.10;;;;;;;;;;5024370;28;20041;-82
2022/11/23 11:15:52;;;;;;;19.27;3.10;;;;;;;;;;5026386;28;20053;-82
2022/11/23 11:18:19;;;;;;;15.45;2.75;;;;;;;;;;5030008;28;20063;-81
2022/11/23 11:20:46;;;;;;;18.30;3.22;;;;;;;;;;5029195;28;20044;-82
2022/11/23 11:23:17;;;;;;;15.68;2.45;;;;;;;;;;5027592;28;20056;-79
2022/11/23 11:25:45;;;;;;;19.23;3.40;;;;;;;;;;5025836;28;20056;-82
2022/11/23 11:28:22;;;;;;;16.00;3.08;;;;;;;;;;5030499;28;20051;-81
2022/11/23 11:30:54;;;;;;;16.92;3.08;;;;;;;;;;5020925;28;20052;-79
2022/11/23 11:33:24;;;;;;;15.63;2.70;;;;;;;;;;5029936;28;20060;-81
2022/11/23 11:35:52;;;;;;;15.90;3.03;;;;;;;;;;5028013;28;20164;-80
2022/11/23 11:38:21;;;;;;;18.05;2.67;;;;;;;;;;5027894;28;20462;-79
2022/11/23 11:40:49;;;;;;;17.13;2.33;;;;;;;;;;5028861;28;20049;-83
2022/11/23 11:43:19;;;;;;;20.65;3.08;;;;;;;;;;5046729;28;20057;-83
2022/11/23 11:45:49;;;;;;;10.85;2.60;;;;;;;;;;5029638;28;20045;-79
2022/11/23 11:48:18;;;;;;;21.13;3.00;;;;;;;;;;5028110;28;20053;-79
2022/11/23 11:50:48;;;;;;;15.30;3.10;;;;;;;;;;5029216;28;20053;-82
2022/11/23 11:53:18;;;;;;;11.25;2.38;;;;;;;;;;5031189;28;20067;-80
2022/11/23 11:55:49;;;;;;;14.18;2.40;;;;;;;;;;5029775;28;20056;-81
2022/11/23 11:58:17;;;;;;;16.25;2.92;;;;;;;;;;5028374;28;20057;-82
2022/11/23 12:00:46;;;;;;;14.77;2.63;;;;;;;;;;5027300;28;20424;-81
2022/11/23 12:03:20;;;;;;;20.52;3.30;;;;;;;;;;5031814;28;20060;-81
2022/11/23 12:05:49;;;;;;;23.02;2.78;;;;;;;;;;5030929;28;20081;-81
2022/11/23 12:08:18;;;;;;;23.10;3.17;;;;;;;;;;5030708;28;20106;-81
2022/11/23 12:10:49;;;;;;;14.07;2.45;;;;;;;;;;5028570;28;20053;-82
2022/11/23 12:13:17;;;;;;;19.40;2.97;;;;;;;;;;5032403;28;20040;-81
2022/11/23 12:15:45;;;;;;;14.93;2.60;;;;;;;;;;5029962;28;20678;-81
2022/11/23 12:18:31;;;;;;;17.25;3.08;;;;;;;;;;5028949;28;20068;-79
2022/11/23 12:21:03;;;;;;;20.55;3.03;;;;;;;;;;5022790;28;20051;-81
2022/11/23 12:23:37;;;;;;;14.88;2.78;;;;;;;;;;5028694;28;20090;-78
2022/11/23 12:26:12;;;;;;;18.67;3.05;;;;;;;;;;5025689;28;20061;-81
2022/11/23 12:28:45;;;;;;;14.18;2.33;;;;;;;;;;5027040;28;20061;-79
2022/11/23 12:31:12;;;;;;;;;;;;;;;;;;5027475;28;20053;-81
2022/11/23 12:33:47;;;;;;;15.73;2.78;;;;;;;;;;5027453;28;19925;-76
2022/11/23 12:36:27;;;;;;;24.35;3.25;;;;;;;;;;5026237;28;20055;-79
2022/11/23 12:38:55;;;;;;;18.05;3.17;;;;;;;;;;5027424;28;20079;-79
2022/11/23 12:41:24;;;;;;;15.23;2.88;;;;;;;;;;5030667;28;20477;-79
2022/11/23 12:44:01;;;;;;;15.63;2.13;;;;;;;;;;5030269;28;20380;-79
2022/11/23 12:46:33;;;;;;;16.88;2.40;;;;;;;;;;5040008;28;20057;-78
2022/11/23 12:49:05;;;;;;;18.33;3.97;;;;;;;;;;5028751;28;20136;-80
2022/11/23 12:51:37;;;;;;;14.43;2.55;;;;;;;;;;5026229;28;20049;-80
2022/11/23 12:54:14;;;;;;;15.40;2.30;;;;;;;;;;5032858;28;20059;-79
2022/11/23 12:56:50;;;;;;;13.30;2.50;;;;;;;;;;5032078;28;20148;-79
2022/11/23 12:59:18;;;;;;;13.25;2.55;;;;;;;;;;5027407;28;20056;-79
2022/11/23 13:01:48;;;;;;;16.63;2.42;;;;;;;;;;5031489;28;20045;-80
2022/11/23 13:04:42;;;;;;;15.57;2.97;;;;;;;;;;5033911;28;20057;-80
2022/11/23 13:07:28;;;;;;;14.43;2.45;;;;;;;;;;4985726;28;20055;-79
2022/11/23 13:10:05;;;;;;;18.42;3.03;;;;;;;;;;5030580;28;20084;-80
2022/11/23 13:12:40;;;;;;;16.30;2.53;;;;;;;;;;5043267;28;20055;-80
2022/11/23 13:15:19;;;;;;;15.02;2.80;;;;;;;;;;5027064;28;20487;-76
2022/11/23 13:17:51;;;;;;;12.80;2.25;;;;;;;;;;5029440;28;20059;-79
2022/11/23 13:20:36;;;;;;;16.13;2.60;;;;;;;;;;5030217;28;20045;-80
2022/11/23 13:23:05;;;;;;;15.70;2.42;;;;;;;;;;5019719;28;20072;-79
2022/11/23 13:25:33;;;;;;;15.20;2.58;;;;;;;;;;5026394;28;20057;-79
2022/11/23 13:28:01;;;;;;;17.20;2.13;;;;;;;;;;5032711;28;20045;-79
2022/11/23 13:30:30;;;;;;;12.70;2.40;;;;;;;;;;5004186;28;20061;-79
2022/11/23 13:32:59;;;;;;;15.23;2.08;;;;;;;;;;5002105;28;20056;-79
2022/11/23 13:35:41;;;;;;;17.23;2.60;;;;;;;;;;5000532;28;20061;-79
2022/11/23 13:38:27;;;;;;;10.85;2.60;;;;;;;;;;4988329;28;20057;-78
2022/11/23 13:40:56;;;;;;;9.80;1.92;;;;;;;;;;5005525;28;20045;-79
2022/11/23 13:43:25;;;;;;;13.93;2.30;;;;;;;;;;5004300;28;20054;-79
2022/11/23 13:46:11;;;;;;;15.35;2.45;;;;;;;;;;5005779;28;20057;-79
2022/11/23 13:48:42;;;;;;;15.18;2.40;;;;;;;;;;5000694;28;20060;-78
2022/11/23 13:51:10;;;;;;;16.58;2.83;;;;;;;;;;5005596;28;20062;-79
2022/11/23 13:53:39;;;;;;;13.95;2.30;;;;;;;;;;5008630;28;20069;-79
2022/11/23 13:56:36;;;;;;;13.00;2.42;;;;;;;;;;4999792;28;20128;-78
2022/11/23 13:59:31;;;;;;;13.43;2.17;;;;;;;;;;4951607;28;20046;-79
2022/11/23 14:01:58;;;;;;;;;;;;;;;;;;4961955;28;20056;-78
2022/11/23 14:04:27;;;;;;;16.00;2.05;;;;;;;;;;5007742;28;20400;-79
2022/11/23 14:06:57;;;;;;;10.90;2.10;;;;;;;;;;5007673;28;20177;-78
2022/11/23 14:09:26;;;;;;;15.50;3.25;;;;;;;;;;5010344;28;20469;-79
2022/11/23 14:11:58;;;;;;;12.05;1.98;;;;;;;;;;5008046;28;20045;-80
2022/11/23 14:14:29;;;;;;;13.23;1.98;;;;;;;;;;5004257;28;20054;-79
2022/11/23 14:17:07;;;;;;;15.82;1.98;;;;;;;;;;5008336;28;20066;-79
2022/11/23 14:19:39;;;;;;;12.10;1.90;;;;;;;;;;5012703;28;20049;-78
2022/11/23 14:22:10;;;;;;;9.68;2.33;;;;;;;;;;5008122;28;20586;-79
2022/11/23 14:24:47;;;;;;;14.52;2.28;;;;;;;;;;5003900;28;20409;-79
2022/11/23 14:27:26;;;;;;;11.00;1.90;;;;;;;;;;5002202;28;20046;-80
2022/11/23 14:30:06;;;;;;;12.52;2.20;;;;;;;;;;5023780;28;20518;-79
2022/11/23 14:32:40;;;;;;;14.10;2.10;;;;;;;;;;5026937;28;20055;-79